createdAt,value
2018-04-14T00:00:02.594Z,10.20
2018-04-14T00:02:30.082Z,10.82
2018-04-14T00:04:58.377Z,11.38
2018-04-14T00:07:25.885Z,11.12
2018-04-14T00:09:53.400Z,22.25
2018-04-14T00:12:20.908Z,11.25
2018-04-14T00:14:48.424Z,10.20
2018-04-14T00:17:16.030Z,10.60
2018-04-14T00:19:43.553Z,10.13
2018-04-14T00:22:11.159Z,10.05
2018-04-14T00:24:38.753Z,8.63
2018-04-14T00:27:06.596Z,9.15
2018-04-14T00:29:34.877Z,9.38
2018-04-14T00:32:03.167Z,8.35
2018-04-14T00:34:30.697Z,9.98
2018-04-14T00:36:58.208Z,9.30
2018-04-14T00:39:25.734Z,8.95
2018-04-14T00:41:54.010Z,8.60
2018-04-14T00:44:22.273Z,9.55
2018-04-14T00:46:50.530Z,9.73
2018-04-14T00:49:18.026Z,9.40
2018-04-14T00:51:45.545Z,9.73
2018-04-14T00:54:13.241Z,9.70
2018-04-14T00:56:40.753Z,10.18
2018-04-14T00:59:08.276Z,9.85
2018-04-14T01:01:35.806Z,9.60
2018-04-14T01:04:04.078Z,10.10
2018-04-14T01:06:32.574Z,11.15
2018-04-14T01:09:00.858Z,9.77
2018-04-14T01:11:28.419Z,9.98
2018-04-14T01:13:56.284Z,9.20
2018-04-14T01:16:24.554Z,8.35
2018-04-14T01:18:52.835Z,10.80
2018-04-14T01:21:21.172Z,10.27
2018-04-14T01:23:48.668Z,9.75
2018-04-14T01:26:17.256Z,11.73
2018-04-14T01:28:45.540Z,9.48
2018-04-14T01:31:13.056Z,9.70
2018-04-14T01:33:40.680Z,10.32
2018-04-14T01:36:08.237Z,9.50
2018-04-14T01:38:36.524Z,9.15
2018-04-14T01:41:04.059Z,9.85
2018-04-14T01:43:31.543Z,7.90
2018-04-14T01:45:59.150Z,8.82
2018-04-14T01:48:27.457Z,9.93
2018-04-14T01:50:54.977Z,8.75
2018-04-14T01:53:22.472Z,9.43
2018-04-14T01:55:49.996Z,9.70
2018-04-14T01:58:18.307Z,10.48
2018-04-14T02:00:45.805Z,9.57
2018-04-14T02:03:13.376Z,9.20
2018-04-14T02:05:40.958Z,9.35
2018-04-14T02:08:09.204Z,9.30
2018-04-14T02:10:36.803Z,10.13
2018-04-14T02:13:04.311Z,9.40
2018-04-14T02:15:31.833Z,9.20
2018-04-14T02:17:59.372Z,9.57
2018-04-14T02:20:27.632Z,9.35
2018-04-14T02:22:55.203Z,8.82
2018-04-14T02:25:23.503Z,8.23
2018-04-14T02:27:51.145Z,8.48
2018-04-14T02:30:19.516Z,8.90
2018-04-14T02:32:47.840Z,7.50
2018-04-14T02:35:15.324Z,7.50
2018-04-14T02:37:42.937Z,7.90
2018-04-14T02:40:10.449Z,7.62
2018-04-14T02:42:37.929Z,8.02
2018-04-14T02:45:06.205Z,7.32
2018-04-14T02:47:33.700Z,7.68
2018-04-14T02:50:01.235Z,8.10
2018-04-14T02:52:28.761Z,8.45
2018-04-14T02:54:56.341Z,8.70
2018-04-14T02:57:24.610Z,6.97
2018-04-14T02:59:52.122Z,6.80
2018-04-14T03:02:19.614Z,7.78
2018-04-14T03:04:47.122Z,6.93
2018-04-14T03:07:14.609Z,7.35
2018-04-14T03:09:42.445Z,7.25
2018-04-14T03:12:09.960Z,7.20
2018-04-14T03:14:37.450Z,7.55
2018-04-14T03:17:05.740Z,8.35
2018-04-14T03:19:33.249Z,7.78
2018-04-14T03:22:00.848Z,8.15
2018-04-14T03:24:29.105Z,6.85
2018-04-14T03:26:57.368Z,7.43
2018-04-14T03:29:24.886Z,6.30
2018-04-14T03:31:52.365Z,6.22
2018-04-14T03:34:19.965Z,7.05
2018-04-14T03:36:48.221Z,6.55
2018-04-14T03:39:15.712Z,7.05
2018-04-14T03:41:43.248Z,6.97
2018-04-14T03:44:11.501Z,7.65
2018-04-14T03:46:39.084Z,6.85
2018-04-14T03:49:07.365Z,6.87
2018-04-14T03:51:35.618Z,6.43
2018-04-14T03:54:03.136Z,7.60
2018-04-14T03:56:30.670Z,6.80
2018-04-14T03:58:58.942Z,7.07
2018-04-14T04:01:27.317Z,8.00
2018-04-14T04:03:55.580Z,8.18
2018-04-14T04:06:23.480Z,7.40
2018-04-14T04:08:51.740Z,7.95
2018-04-14T04:11:19.996Z,7.00
2018-04-14T04:13:47.495Z,8.55
2018-04-14T04:16:15.017Z,8.30
2018-04-14T04:18:55.124Z,7.10
2018-04-14T04:21:34.682Z,9.82
2018-04-14T04:24:14.265Z,8.40
2018-04-14T04:26:42.505Z,8.13
2018-04-14T04:29:09.989Z,7.90
2018-04-14T04:31:37.564Z,8.18
2018-04-14T04:34:05.830Z,8.77
2018-04-14T04:36:33.389Z,8.13
2018-04-14T04:39:01.682Z,6.75
2018-04-14T04:41:29.945Z,8.05
2018-04-14T04:43:58.205Z,7.93
2018-04-14T04:46:25.686Z,8.95
2018-04-14T04:48:53.982Z,8.45
2018-04-14T04:51:22.258Z,7.78
2018-04-14T04:53:49.783Z,8.50
2018-04-14T04:56:18.071Z,9.25
2018-04-14T04:58:46.637Z,9.43
2018-04-14T05:01:14.909Z,9.73
2018-04-14T05:03:43.373Z,10.30
2018-04-14T05:06:10.878Z,8.50
2018-04-14T05:08:38.388Z,8.27
2018-04-14T05:11:05.892Z,8.38
2018-04-14T05:13:34.153Z,8.10
2018-04-14T05:16:02.417Z,7.85
2018-04-14T05:18:29.946Z,8.13
2018-04-14T05:20:57.448Z,8.52
2018-04-14T05:23:25.730Z,7.60
2018-04-14T05:25:53.967Z,8.20
2018-04-14T05:28:21.477Z,7.95
2018-04-14T05:30:48.963Z,8.07
2018-04-14T05:33:16.533Z,7.10
2018-04-14T05:35:44.834Z,6.78
2018-04-14T05:38:12.332Z,7.57
2018-04-14T05:40:39.834Z,6.72
2018-04-14T05:43:07.330Z,8.02
2018-04-14T05:45:35.596Z,7.15
2018-04-14T05:48:03.860Z,7.50
2018-04-14T05:50:31.376Z,7.30
2018-04-14T05:52:58.854Z,8.20
2018-04-14T05:55:26.394Z,8.07
2018-04-14T05:57:53.916Z,8.35
2018-04-14T06:00:22.184Z,7.80
2018-04-14T06:02:50.458Z,7.87
2018-04-14T06:05:18.023Z,7.68
2018-04-14T06:07:46.292Z,7.70
2018-04-14T06:10:14.568Z,7.28
2018-04-14T06:12:42.848Z,7.15
2018-04-14T06:15:11.128Z,7.50
2018-04-14T06:17:39.386Z,7.72
2018-04-14T06:20:06.968Z,7.47
2018-04-14T06:22:35.221Z,7.15
2018-04-14T06:25:03.001Z,6.70
2018-04-14T06:27:31.252Z,7.03
2018-04-14T06:29:58.752Z,7.00
2018-04-14T06:32:27.041Z,7.53
2018-04-14T06:34:54.537Z,6.65
2018-04-14T06:37:22.053Z,7.27
2018-04-14T06:39:49.546Z,6.57
2018-04-14T06:42:17.366Z,6.30
2018-04-14T06:44:45.676Z,6.47
2018-04-14T06:47:13.186Z,7.13
2018-04-14T06:49:41.477Z,6.50
2018-04-14T06:52:09.761Z,6.30
2018-04-14T06:54:37.320Z,6.37
2018-04-14T06:57:05.592Z,6.27
2018-04-14T06:59:33.091Z,7.30
2018-04-14T07:02:00.590Z,6.30
2018-04-14T07:04:28.890Z,6.57
2018-04-14T07:06:57.137Z,6.00
2018-04-14T07:09:25.416Z,6.10
2018-04-14T07:11:54.013Z,5.80
2018-04-14T07:14:22.312Z,6.60
2018-04-14T07:16:49.982Z,5.60
2018-04-14T07:19:17.501Z,6.43
2018-04-14T07:21:45.769Z,7.80
2018-04-14T07:24:14.070Z,6.40
2018-04-14T07:26:42.395Z,6.43
2018-04-14T07:29:09.880Z,7.20
2018-04-14T07:31:37.406Z,6.97
2018-04-14T07:34:04.974Z,7.83
2018-04-14T07:36:32.495Z,6.67
2018-04-14T07:38:59.996Z,8.77
2018-04-14T07:41:27.676Z,8.90
2018-04-14T07:43:55.202Z,11.40
2018-04-14T07:46:22.725Z,9.67
2018-04-14T07:48:50.214Z,9.83
2018-04-14T07:51:17.736Z,10.90
2018-04-14T07:53:45.335Z,9.37
2018-04-14T07:56:12.836Z,10.43
2018-04-14T07:58:40.353Z,10.87
2018-04-14T08:01:07.857Z,10.63
2018-04-14T08:03:36.112Z,12.10
2018-04-14T08:06:03.795Z,12.60
2018-04-14T08:08:32.112Z,12.00
2018-04-14T08:10:59.626Z,13.30
2018-04-14T08:13:27.892Z,12.63
2018-04-14T08:15:56.212Z,12.17
2018-04-14T08:18:23.711Z,12.73
2018-04-14T08:20:51.218Z,11.90
2018-04-14T08:23:19.526Z,12.97
2018-04-14T08:25:47.069Z,13.37
2018-04-14T08:28:14.626Z,13.40
2018-04-14T08:30:42.142Z,13.70
2018-04-14T08:33:09.658Z,14.17
2018-04-14T08:35:37.167Z,15.20
2018-04-14T08:38:05.453Z,16.30
2018-04-14T08:40:33.013Z,16.00
2018-04-14T08:43:00.508Z,15.93
2018-04-14T08:45:28.043Z,17.17
2018-04-14T08:47:55.522Z,17.70
2018-04-14T08:50:23.035Z,18.17
2018-04-14T08:52:51.405Z,17.30
2018-04-14T08:55:19.697Z,20.73
2018-04-14T08:57:47.192Z,17.53
2018-04-14T09:00:14.800Z,22.50
2018-04-14T09:02:43.075Z,21.50
2018-04-14T09:05:11.332Z,21.00
2018-04-14T09:07:39.627Z,21.33
2018-04-14T09:10:08.618Z,20.63
2018-04-14T09:12:36.923Z,19.37
2018-04-14T09:15:05.275Z,21.50
2018-04-14T09:17:33.663Z,20.10
2018-04-14T09:20:01.917Z,21.07
2018-04-14T09:22:30.236Z,21.57
2018-04-14T09:24:57.775Z,21.00
2018-04-14T09:27:25.289Z,21.00
2018-04-14T09:29:52.821Z,22.73
2018-04-14T09:32:20.463Z,26.17
2018-04-14T09:34:47.968Z,24.30
2018-04-14T09:37:15.557Z,27.57
2018-04-14T09:39:43.861Z,28.10
2018-04-14T09:42:11.369Z,27.60
2018-04-14T09:44:39.713Z,28.30
2018-04-14T09:47:07.250Z,27.83
2018-04-14T09:49:34.766Z,26.37
2018-04-14T09:52:02.291Z,25.03
2018-04-14T09:54:29.805Z,25.40
2018-04-14T09:56:58.179Z,27.60
2018-04-14T09:59:26.565Z,25.50
2018-04-14T10:01:54.857Z,27.40
2018-04-14T10:04:22.382Z,25.90
2018-04-14T10:06:49.903Z,26.17
2018-04-14T10:09:17.413Z,26.07
2018-04-14T10:11:46.109Z,28.30
2018-04-14T10:14:14.470Z,25.47
2018-04-14T10:16:41.964Z,29.00
2018-04-14T10:19:09.535Z,30.77
2018-04-14T10:21:37.828Z,29.17
2018-04-14T10:24:05.357Z,31.50
2018-04-14T10:26:33.006Z,31.50
2018-04-14T10:29:11.531Z,30.10
2018-04-14T10:31:39.089Z,33.13
2018-04-14T10:34:06.858Z,29.27
2018-04-14T10:36:44.445Z,32.93
2018-04-14T10:39:12.801Z,30.27
2018-04-14T10:41:40.362Z,30.63
2018-04-14T10:44:08.610Z,33.13
2018-04-14T10:46:36.216Z,27.50
2018-04-14T10:49:03.770Z,28.77
2018-04-14T10:51:32.548Z,26.53
2018-04-14T10:54:00.814Z,27.30
2018-04-14T10:56:29.126Z,25.70
2018-04-14T10:58:56.624Z,28.50
2018-04-14T11:01:24.134Z,29.30
2018-04-14T11:03:52.463Z,29.93
2018-04-14T11:06:19.965Z,36.03
2018-04-14T11:08:47.527Z,34.27
2018-04-14T11:11:15.794Z,32.97
2018-04-14T11:13:44.050Z,34.00
2018-04-14T11:16:11.629Z,31.50
2018-04-14T11:18:39.958Z,33.33
2018-04-14T11:21:07.503Z,32.10
2018-04-14T11:23:36.081Z,33.70
2018-04-14T11:26:03.606Z,36.23
2018-04-14T11:28:32.198Z,33.50
2018-04-14T11:31:00.471Z,35.27
2018-04-14T11:33:28.761Z,35.50
2018-04-14T11:35:56.404Z,32.53
2018-04-14T11:38:25.669Z,33.33
2018-04-14T11:40:53.208Z,35.70
2018-04-14T11:43:20.820Z,35.20
2018-04-14T11:45:49.558Z,37.20
2018-04-14T11:48:17.481Z,37.23
2018-04-14T11:50:45.833Z,35.27
2018-04-14T11:53:13.408Z,36.47
2018-04-14T11:55:41.722Z,33.47
2018-04-14T11:58:09.221Z,37.30
2018-04-14T12:00:36.792Z,34.83
2018-04-14T12:03:05.069Z,37.27
2018-04-14T12:05:32.953Z,38.37
2018-04-14T12:08:01.332Z,39.50
2018-04-14T12:10:29.584Z,38.93
2018-04-14T12:12:57.174Z,42.67
2018-04-14T12:15:25.435Z,38.70
2018-04-14T12:17:53.765Z,39.67
2018-04-14T12:20:21.314Z,41.90
2018-04-14T12:22:48.891Z,40.27
2018-04-14T12:25:16.420Z,41.30
2018-04-14T12:27:43.924Z,39.00
2018-04-14T12:30:11.529Z,37.73
2018-04-14T12:32:39.809Z,37.93
2018-04-14T12:35:08.806Z,39.50
2018-04-14T12:37:37.358Z,41.13
2018-04-14T12:40:05.258Z,38.97
2018-04-14T12:42:32.832Z,38.80
2018-04-14T12:45:00.334Z,40.80
2018-04-14T12:47:28.625Z,43.70
2018-04-14T12:49:56.146Z,44.97
2018-04-14T12:52:23.743Z,40.93
2018-04-14T12:54:51.905Z,38.40
2018-04-14T12:57:19.903Z,35.57
2018-04-14T12:59:47.516Z,41.87
2018-04-14T13:02:15.105Z,38.73
2018-04-14T13:04:43.402Z,40.47
2018-04-14T13:07:11.706Z,38.90
2018-04-14T13:09:39.328Z,42.27
2018-04-14T13:12:07.645Z,42.13
2018-04-14T13:14:35.178Z,41.17
2018-04-14T13:17:02.685Z,41.87
2018-04-14T13:19:30.970Z,42.60
2018-04-14T13:22:00.340Z,43.37
2018-04-14T13:24:27.886Z,39.73
2018-04-14T13:26:55.416Z,43.87
2018-04-14T13:29:28.695Z,42.60
2018-04-14T13:31:57.732Z,45.07
2018-04-14T13:34:25.246Z,49.70
2018-04-14T13:36:52.790Z,43.87
2018-04-14T13:39:20.333Z,42.33
2018-04-14T13:41:47.893Z,40.37
2018-04-14T13:44:15.427Z,40.80
2018-04-14T13:46:42.939Z,42.47
2018-04-14T13:49:11.268Z,42.10
2018-04-14T13:51:38.756Z,46.37
2018-04-14T13:54:07.240Z,42.13
2018-04-14T13:56:35.589Z,42.93
2018-04-14T13:59:03.195Z,41.70
2018-04-14T14:01:31.549Z,40.27
2018-04-14T14:03:59.083Z,40.83
2018-04-14T14:06:26.734Z,44.43
2018-04-14T14:08:54.236Z,40.40
2018-04-14T14:11:22.110Z,40.10
2018-04-14T14:13:49.634Z,43.27
2018-04-14T14:16:17.241Z,41.60
2018-04-14T14:18:45.589Z,49.53
2018-04-14T14:21:13.105Z,42.00
2018-04-14T14:23:40.626Z,42.50
2018-04-14T14:26:09.015Z,44.27
2018-04-14T14:28:37.380Z,40.77
2018-04-14T14:31:04.921Z,45.03
2018-04-14T14:33:32.473Z,45.00
2018-04-14T14:35:59.968Z,43.97
2018-04-14T14:38:28.988Z,39.33
2018-04-14T14:40:56.934Z,43.50
2018-04-14T14:43:25.247Z,41.60
2018-04-14T14:45:52.743Z,40.07
2018-04-14T14:48:20.275Z,44.37
2018-04-14T14:50:47.840Z,41.60
2018-04-14T14:53:15.344Z,47.10
2018-04-14T14:55:42.924Z,43.37
2018-04-14T14:58:10.423Z,42.70
2018-04-14T15:00:37.939Z,39.80
2018-04-14T15:03:05.477Z,44.37
2018-04-14T15:05:33.811Z,40.90
2018-04-14T15:08:01.401Z,42.30
2018-04-14T15:10:29.686Z,41.97
2018-04-14T15:12:57.966Z,39.83
2018-04-14T15:15:26.232Z,41.20
2018-04-14T15:17:54.509Z,43.57
2018-04-14T15:20:22.796Z,40.10
2018-04-14T15:22:51.192Z,40.03
2018-04-14T15:25:20.179Z,41.57
2018-04-14T15:27:47.721Z,42.00
2018-04-14T15:30:16.103Z,42.20
2018-04-14T15:32:44.578Z,40.87
2018-04-14T15:35:13.056Z,38.43
2018-04-14T15:37:41.442Z,42.40
2018-04-14T15:40:09.297Z,36.80
2018-04-14T15:42:37.598Z,35.40
2018-04-14T15:45:05.151Z,36.70
2018-04-14T15:47:32.695Z,38.10
2018-04-14T15:50:00.974Z,39.77
2018-04-14T15:52:29.350Z,36.63
2018-04-14T15:54:57.799Z,35.77
2018-04-14T15:57:25.377Z,37.67
2018-04-14T15:59:52.893Z,36.43
2018-04-14T16:02:20.497Z,37.43
2018-04-14T16:04:48.873Z,38.43
2018-04-14T16:07:17.142Z,36.60
2018-04-14T16:09:44.640Z,34.37
2018-04-14T16:12:12.618Z,34.80
2018-04-14T16:14:40.553Z,33.13
2018-04-14T16:17:08.860Z,37.60
2018-04-14T16:19:37.115Z,35.30
2018-04-14T16:22:05.387Z,37.80
2018-04-14T16:24:33.649Z,36.77
2018-04-14T16:27:02.060Z,34.73
2018-04-14T16:29:29.548Z,33.33
2018-04-14T16:31:57.517Z,31.90
2018-04-14T16:34:25.040Z,29.53
2018-04-14T16:36:52.536Z,29.60
2018-04-14T16:39:20.142Z,32.47
2018-04-14T16:41:48.425Z,32.27
2018-04-14T16:44:15.925Z,30.90
2018-04-14T16:46:43.456Z,83.33
2018-04-14T16:49:10.973Z,44.40
2018-04-14T16:51:38.571Z,820.47
2018-04-14T16:54:06.820Z,312.33
2018-04-14T16:56:35.121Z,307.50
2018-04-14T16:59:03.491Z,471.23
2018-04-14T17:01:31.779Z,168.23
2018-04-14T17:03:59.276Z,455.03
2018-04-14T17:06:26.830Z,309.57
2018-04-14T17:08:54.340Z,247.70
2018-04-14T17:11:22.598Z,183.90
2018-04-14T17:13:50.238Z,179.07
2018-04-14T17:16:17.757Z,191.17
2018-04-14T17:18:45.261Z,55.77
2018-04-14T17:21:12.842Z,123.87
2018-04-14T17:23:41.089Z,50.60
2018-04-14T17:26:08.614Z,31.93
2018-04-14T17:28:37.447Z,31.60
2018-04-14T17:31:04.962Z,28.07
2018-04-14T17:33:32.464Z,27.00
2018-04-14T17:36:00.767Z,26.00
2018-04-14T17:38:29.051Z,23.40
2018-04-14T17:40:56.608Z,22.90
2018-04-14T17:43:24.859Z,23.20
2018-04-14T17:45:52.578Z,20.60
2018-04-14T17:48:20.847Z,22.13
2018-04-14T17:50:48.350Z,20.87
2018-04-14T17:53:16.693Z,23.97
2018-04-14T17:55:44.911Z,20.90
2018-04-14T17:58:12.482Z,21.17
2018-04-14T18:00:40.744Z,22.13
2018-04-14T18:03:08.233Z,24.43
2018-04-14T18:05:35.780Z,24.40
2018-04-14T18:08:04.070Z,24.47
2018-04-14T18:10:31.684Z,23.17
2018-04-14T18:13:00.030Z,29.07
2018-04-14T18:15:27.584Z,25.47
2018-04-14T18:17:55.081Z,38.83
2018-04-14T18:20:22.609Z,22.97
2018-04-14T18:22:50.113Z,29.20
2018-04-14T18:25:18.363Z,23.93
2018-04-14T18:27:45.896Z,25.23
2018-04-14T18:30:13.426Z,27.93
2018-04-14T18:32:41.748Z,37.50
2018-04-14T18:35:09.359Z,30.10
2018-04-14T18:37:37.849Z,26.63
2018-04-14T18:40:05.352Z,26.23
2018-04-14T18:42:33.668Z,23.60
2018-04-14T18:45:02.131Z,25.33
2018-04-14T18:47:29.717Z,24.60
2018-04-14T18:49:57.265Z,26.40
2018-04-14T18:52:26.313Z,28.00
2018-04-14T18:54:54.236Z,26.10
2018-04-14T18:57:22.591Z,27.27
2018-04-14T18:59:51.230Z,25.23
2018-04-14T19:02:19.058Z,29.00
2018-04-14T19:04:46.665Z,28.27
2018-04-14T19:07:14.234Z,28.07
2018-04-14T19:09:41.775Z,27.03
2018-04-14T19:12:09.278Z,27.97
2018-04-14T19:14:38.491Z,25.97
2018-04-14T19:17:06.803Z,26.10
2018-04-14T19:19:34.344Z,21.53
2018-04-14T19:22:02.620Z,21.70
2018-04-14T19:24:30.168Z,23.57
2018-04-14T19:26:57.723Z,22.87
2018-04-14T19:29:25.372Z,24.00
2018-04-14T19:31:52.900Z,24.50
2018-04-14T19:34:20.400Z,23.57
2018-04-14T19:36:48.692Z,24.83
2018-04-14T19:39:16.986Z,23.67
2018-04-14T19:41:44.845Z,25.37
2018-04-14T19:44:12.450Z,27.20
2018-04-14T19:46:39.980Z,32.27
2018-04-14T19:49:07.553Z,26.03
2018-04-14T19:51:35.070Z,27.77
2018-04-14T19:54:03.329Z,25.00
2018-04-14T19:56:31.617Z,27.73
2018-04-14T19:58:59.941Z,24.33
2018-04-14T20:01:27.480Z,25.83
2018-04-14T20:03:55.034Z,27.57
2018-04-14T20:06:22.548Z,24.77
2018-04-14T20:08:50.164Z,23.80
2018-04-14T20:11:17.705Z,22.77
2018-04-14T20:13:45.264Z,22.23
2018-04-14T20:16:13.577Z,24.10
2018-04-14T20:18:41.141Z,24.43
2018-04-14T20:21:08.664Z,22.10
2018-04-14T20:23:36.247Z,34.00
2018-04-14T20:26:03.767Z,28.90
2018-04-14T20:28:32.129Z,24.73
2018-04-14T20:30:59.882Z,24.50
2018-04-14T20:33:29.204Z,24.60
2018-04-14T20:35:57.523Z,22.57
2018-04-14T20:38:25.016Z,23.90
2018-04-14T20:40:54.140Z,22.10
2018-04-14T20:43:21.688Z,22.03
2018-04-14T20:45:49.960Z,23.33
2018-04-14T20:48:18.783Z,21.87
2018-04-14T20:50:46.658Z,19.70
2018-04-14T20:53:14.297Z,20.00
2018-04-14T20:55:42.751Z,23.30
2018-04-14T20:58:11.061Z,22.03
2018-04-14T21:00:39.531Z,21.50
2018-04-14T21:03:07.930Z,23.73
2018-04-14T21:05:35.434Z,22.77
2018-04-14T21:08:02.929Z,22.30
2018-04-14T21:10:30.714Z,24.57
2018-04-14T21:12:58.199Z,24.47
2018-04-14T21:15:25.712Z,21.60
2018-04-14T21:17:53.209Z,19.40
2018-04-14T21:20:20.733Z,18.50
2018-04-14T21:22:49.005Z,18.83
2018-04-14T21:25:16.956Z,20.13
2018-04-14T21:27:45.337Z,17.53
2018-04-14T21:30:12.880Z,17.50
2018-04-14T21:32:40.494Z,18.03
2018-04-14T21:35:08.035Z,21.30
2018-04-14T21:37:35.577Z,21.70
2018-04-14T21:40:03.840Z,21.97
2018-04-14T21:42:31.408Z,22.60
2018-04-14T21:44:59.715Z,21.70
2018-04-14T21:47:27.209Z,23.40
2018-04-14T21:49:54.916Z,22.57
2018-04-14T21:52:23.326Z,22.00
2018-04-14T21:54:51.568Z,26.70
2018-04-14T21:57:19.873Z,26.73
2018-04-14T21:59:47.377Z,23.37
2018-04-14T22:02:16.480Z,24.73
2018-04-14T22:04:44.043Z,22.90
2018-04-14T22:07:11.621Z,26.20
2018-04-14T22:09:39.909Z,27.43
2018-04-14T22:12:07.444Z,25.20
2018-04-14T22:14:35.875Z,27.60
2018-04-14T22:17:03.408Z,27.30
2018-04-14T22:19:30.951Z,25.47
2018-04-14T22:21:59.319Z,26.60
2018-04-14T22:24:27.603Z,28.03
2018-04-14T22:26:55.161Z,26.33
2018-04-14T22:29:23.544Z,26.67
2018-04-14T22:31:51.816Z,25.50
2018-04-14T22:34:20.072Z,26.63
2018-04-14T22:36:48.467Z,26.17
2018-04-14T22:39:16.721Z,26.33
2018-04-14T22:41:44.300Z,26.30
2018-04-14T22:44:12.618Z,27.73
2018-04-14T22:46:40.104Z,27.43
2018-04-14T22:49:07.636Z,27.40
2018-04-14T22:51:35.141Z,26.90
2018-04-14T22:54:02.647Z,26.20
2018-04-14T22:56:30.183Z,25.77
2018-04-14T22:58:58.455Z,36.00
2018-04-14T23:01:26.711Z,32.07
2018-04-14T23:03:54.291Z,25.23
2018-04-14T23:06:22.660Z,25.77
2018-04-14T23:08:51.039Z,28.63
2018-04-14T23:11:19.426Z,33.07
2018-04-14T23:13:47.739Z,40.67
2018-04-14T23:16:15.192Z,39.10
2018-04-14T23:18:42.719Z,37.17
2018-04-14T23:21:10.275Z,32.33
2018-04-14T23:23:38.534Z,37.10
2018-04-14T23:26:07.546Z,32.07
2018-04-14T23:28:35.821Z,36.20
2018-04-14T23:31:03.327Z,38.23
2018-04-14T23:33:30.924Z,45.87
2018-04-14T23:35:59.219Z,43.37
2018-04-14T23:38:27.091Z,52.27
2018-04-14T23:40:54.594Z,54.40
2018-04-14T23:43:22.197Z,50.10
2018-04-14T23:45:50.461Z,48.60
2018-04-14T23:48:18.756Z,47.70
2018-04-14T23:50:47.050Z,44.20
2018-04-14T23:53:14.589Z,45.63
2018-04-14T23:55:42.900Z,51.13
2018-04-14T23:58:10.389Z,61.93
